createdAt,value
2017-12-24T00:00:14.493Z,22.10
2017-12-24T00:02:40.880Z,24.13
2017-12-24T00:05:07.232Z,22.77
2017-12-24T00:07:33.582Z,23.67
2017-12-24T00:09:59.898Z,22.13
2017-12-24T00:12:26.992Z,22.20
2017-12-24T00:14:53.324Z,25.37
2017-12-24T00:17:19.683Z,22.17
2017-12-24T00:19:46.033Z,21.90
2017-12-24T00:22:12.357Z,23.57
2017-12-24T00:24:38.702Z,23.00
2017-12-24T00:27:04.999Z,22.00
2017-12-24T00:29:31.335Z,21.67
2017-12-24T00:31:57.644Z,24.40
2017-12-24T00:34:23.956Z,24.53
2017-12-24T00:36:50.312Z,24.67
2017-12-24T00:39:16.630Z,23.60
2017-12-24T00:41:42.970Z,23.63
2017-12-24T00:44:09.300Z,25.60
2017-12-24T00:46:35.628Z,25.17
2017-12-24T00:49:01.967Z,25.30
2017-12-24T00:51:28.290Z,23.20
2017-12-24T00:53:54.627Z,27.93
2017-12-24T00:56:20.935Z,24.43
2017-12-24T00:58:47.260Z,25.70
2017-12-24T01:01:14.305Z,22.63
2017-12-24T01:03:40.636Z,23.53
2017-12-24T01:06:07.690Z,24.20
2017-12-24T01:08:34.247Z,23.03
2017-12-24T01:11:00.579Z,25.70
2017-12-24T01:13:26.898Z,25.80
2017-12-24T01:15:53.232Z,21.83
2017-12-24T01:18:19.608Z,24.20
2017-12-24T01:20:45.916Z,21.17
2017-12-24T01:23:12.276Z,21.83
2017-12-24T01:25:39.356Z,23.07
2017-12-24T01:28:05.732Z,23.60
2017-12-24T01:30:32.064Z,23.47
2017-12-24T01:32:58.381Z,25.90
2017-12-24T01:35:24.703Z,26.50
2017-12-24T01:37:51.018Z,26.30
2017-12-24T01:40:17.353Z,25.93
2017-12-24T01:42:43.678Z,25.80
2017-12-24T01:45:10.030Z,26.23
2017-12-24T01:47:48.486Z,24.10
2017-12-24T01:50:15.557Z,20.60
2017-12-24T01:52:42.599Z,23.93
2017-12-24T01:55:08.942Z,22.27
2017-12-24T01:57:35.267Z,22.27
2017-12-24T02:00:01.659Z,21.33
2017-12-24T02:02:27.988Z,23.30
2017-12-24T02:04:54.376Z,21.93
2017-12-24T02:07:20.773Z,20.87
2017-12-24T02:09:47.859Z,17.73
2017-12-24T02:12:14.228Z,19.83
2017-12-24T02:14:40.581Z,19.70
2017-12-24T02:17:07.642Z,18.83
2017-12-24T02:19:33.988Z,18.50
2017-12-24T02:22:00.326Z,21.70
2017-12-24T02:24:26.660Z,21.53
2017-12-24T02:26:53.033Z,18.27
2017-12-24T02:29:19.337Z,18.33
2017-12-24T02:31:45.677Z,19.93
2017-12-24T02:34:12.016Z,19.30
2017-12-24T02:36:38.385Z,17.30
2017-12-24T02:39:04.731Z,17.37
2017-12-24T02:41:31.073Z,18.47
2017-12-24T02:43:57.383Z,18.60
2017-12-24T02:46:23.714Z,23.57
2017-12-24T02:48:50.025Z,21.27
2017-12-24T02:51:16.373Z,21.20
2017-12-24T02:53:43.432Z,20.97
2017-12-24T02:56:09.775Z,23.57
2017-12-24T02:58:36.089Z,25.00
2017-12-24T03:01:02.404Z,25.53
2017-12-24T03:03:28.734Z,22.13
2017-12-24T03:05:55.049Z,24.13
2017-12-24T03:08:22.320Z,22.90
2017-12-24T03:10:48.804Z,23.57
2017-12-24T03:13:15.136Z,21.70
2017-12-24T03:15:41.490Z,22.50
2017-12-24T03:18:08.560Z,26.33
2017-12-24T03:20:35.622Z,21.20
2017-12-24T03:23:01.961Z,19.47
2017-12-24T03:25:28.269Z,18.63
2017-12-24T03:27:54.623Z,16.27
2017-12-24T03:30:20.953Z,16.00
2017-12-24T03:32:47.294Z,16.93
2017-12-24T03:35:13.618Z,18.20
2017-12-24T03:37:39.935Z,17.60
2017-12-24T03:40:06.283Z,17.60
2017-12-24T03:42:32.628Z,17.73
2017-12-24T03:44:58.982Z,15.83
2017-12-24T03:47:25.294Z,16.70
2017-12-24T03:49:51.644Z,17.30
2017-12-24T03:52:17.961Z,17.43
2017-12-24T03:54:45.054Z,17.93
2017-12-24T03:57:11.406Z,16.03
2017-12-24T03:59:37.741Z,16.80
2017-12-24T04:02:04.069Z,15.37
2017-12-24T04:04:30.414Z,14.90
2017-12-24T04:06:56.759Z,13.33
2017-12-24T04:09:23.879Z,17.10
2017-12-24T04:11:50.206Z,15.30
2017-12-24T04:14:16.541Z,12.47
2017-12-24T04:16:42.870Z,13.03
2017-12-24T04:19:09.248Z,12.97
2017-12-24T04:21:36.325Z,13.23
2017-12-24T04:24:02.676Z,12.43
2017-12-24T04:26:29.042Z,12.60
2017-12-24T04:28:55.343Z,12.27
2017-12-24T04:31:21.684Z,11.87
2017-12-24T04:33:48.011Z,12.50
2017-12-24T04:36:14.331Z,12.00
2017-12-24T04:38:40.660Z,12.50
2017-12-24T04:41:07.010Z,13.77
2017-12-24T04:43:33.323Z,11.90
2017-12-24T04:45:59.690Z,11.20
2017-12-24T04:48:26.793Z,10.53
2017-12-24T04:50:53.148Z,12.90
2017-12-24T04:53:19.510Z,11.60
2017-12-24T04:55:45.848Z,9.90
2017-12-24T04:58:12.165Z,9.83
2017-12-24T05:00:38.499Z,11.40
2017-12-24T05:03:04.818Z,10.60
2017-12-24T05:05:31.162Z,10.40
2017-12-24T05:07:57.499Z,11.00
2017-12-24T05:10:23.843Z,11.90
2017-12-24T05:12:50.214Z,8.90
2017-12-24T05:15:16.545Z,10.67
2017-12-24T05:17:42.888Z,10.20
2017-12-24T05:20:09.207Z,9.07
2017-12-24T05:22:35.534Z,8.07
2017-12-24T05:25:01.844Z,9.90
2017-12-24T05:27:28.190Z,9.73
2017-12-24T05:29:54.519Z,9.13
2017-12-24T05:32:20.848Z,8.93
2017-12-24T05:34:47.180Z,8.90
2017-12-24T05:37:13.517Z,10.70
2017-12-24T05:39:39.836Z,9.73
2017-12-24T05:42:06.168Z,8.70
2017-12-24T05:44:32.504Z,9.13
2017-12-24T05:46:58.823Z,9.67
2017-12-24T05:49:25.157Z,9.73
2017-12-24T05:51:51.495Z,8.43
2017-12-24T05:54:17.822Z,9.23
2017-12-24T05:56:44.166Z,9.70
2017-12-24T05:59:10.493Z,9.10
2017-12-24T06:01:36.800Z,9.47
2017-12-24T06:04:03.109Z,11.07
2017-12-24T06:06:30.156Z,8.80
2017-12-24T06:08:57.223Z,9.60
2017-12-24T06:11:23.570Z,8.27
2017-12-24T06:13:49.897Z,9.03
2017-12-24T06:16:16.243Z,9.20
2017-12-24T06:18:42.570Z,8.77
2017-12-24T06:21:08.955Z,10.03
2017-12-24T06:23:36.021Z,7.60
2017-12-24T06:26:02.332Z,9.20
2017-12-24T06:28:29.405Z,8.77
2017-12-24T06:30:55.711Z,8.10
2017-12-24T06:33:22.072Z,9.33
2017-12-24T06:35:48.383Z,10.27
2017-12-24T06:38:14.716Z,10.00
2017-12-24T06:40:41.822Z,9.17
2017-12-24T06:43:08.152Z,8.13
2017-12-24T06:45:34.469Z,7.67
2017-12-24T06:48:00.814Z,8.00
2017-12-24T06:50:27.110Z,7.13
2017-12-24T06:52:53.468Z,7.50
2017-12-24T06:55:19.768Z,6.40
2017-12-24T06:57:46.075Z,8.60
2017-12-24T07:00:12.420Z,7.40
2017-12-24T07:02:39.496Z,7.70
2017-12-24T07:05:05.826Z,7.23
2017-12-24T07:07:32.160Z,6.50
2017-12-24T07:09:58.529Z,7.10
2017-12-24T07:12:25.591Z,6.57
2017-12-24T07:14:52.669Z,6.40
2017-12-24T07:17:18.979Z,7.13
2017-12-24T07:19:45.299Z,6.43
2017-12-24T07:22:11.614Z,5.97
2017-12-24T07:24:38.681Z,7.27
2017-12-24T07:27:05.919Z,6.73
2017-12-24T07:29:32.979Z,7.10
2017-12-24T07:31:59.291Z,7.50
2017-12-24T07:34:26.354Z,7.23
2017-12-24T07:36:52.682Z,7.00
2017-12-24T07:39:19.973Z,9.30
2017-12-24T07:41:46.278Z,6.43
2017-12-24T07:44:12.586Z,8.10
2017-12-24T07:46:38.932Z,7.00
2017-12-24T07:49:05.262Z,5.90
2017-12-24T07:51:31.601Z,7.07
2017-12-24T07:53:57.928Z,6.80
2017-12-24T07:56:24.255Z,6.50
2017-12-24T07:58:50.581Z,6.90
2017-12-24T08:01:16.915Z,6.60
2017-12-24T08:03:43.220Z,6.77
2017-12-24T08:06:10.288Z,8.53
2017-12-24T08:08:36.610Z,8.17
2017-12-24T08:11:02.958Z,6.60
2017-12-24T08:13:29.274Z,6.83
2017-12-24T08:15:55.610Z,6.60
2017-12-24T08:18:21.930Z,7.00
2017-12-24T08:20:48.249Z,7.17
2017-12-24T08:23:15.320Z,7.00
2017-12-24T08:25:41.643Z,7.70
2017-12-24T08:28:07.978Z,6.83
2017-12-24T08:30:34.302Z,10.03
2017-12-24T08:33:00.638Z,8.53
2017-12-24T08:35:26.952Z,8.10
2017-12-24T08:37:54.034Z,7.97
2017-12-24T08:40:20.365Z,7.40
2017-12-24T08:42:46.715Z,7.70
2017-12-24T08:45:13.067Z,10.70
2017-12-24T08:47:39.414Z,9.13
2017-12-24T08:50:06.484Z,8.63
2017-12-24T08:52:32.825Z,9.27
2017-12-24T08:54:59.206Z,9.30
2017-12-24T08:57:25.532Z,8.73
2017-12-24T08:59:51.858Z,10.30
2017-12-24T09:02:18.201Z,8.37
2017-12-24T09:04:44.523Z,9.13
2017-12-24T09:07:10.871Z,10.07
2017-12-24T09:09:37.253Z,9.13
2017-12-24T09:12:03.574Z,10.33
2017-12-24T09:14:29.918Z,9.83
2017-12-24T09:16:56.276Z,9.50
2017-12-24T09:19:23.378Z,13.20
2017-12-24T09:21:49.689Z,13.20
2017-12-24T09:24:16.013Z,12.10
2017-12-24T09:26:43.094Z,9.30
2017-12-24T09:29:09.408Z,11.20
2017-12-24T09:31:36.439Z,12.63
2017-12-24T09:34:03.540Z,11.20
2017-12-24T09:36:29.871Z,10.70
2017-12-24T09:38:56.193Z,10.53
2017-12-24T09:41:22.526Z,11.50
2017-12-24T09:43:48.837Z,12.50
2017-12-24T09:46:15.168Z,14.33
2017-12-24T09:48:41.478Z,11.30
2017-12-24T09:51:07.821Z,13.30
2017-12-24T09:53:34.134Z,14.53
2017-12-24T09:56:01.207Z,12.20
2017-12-24T09:58:27.528Z,13.20
2017-12-24T10:00:53.856Z,10.90
2017-12-24T10:03:20.188Z,11.80
2017-12-24T10:05:46.523Z,13.50
2017-12-24T10:08:12.834Z,12.13
2017-12-24T10:10:39.165Z,13.37
2017-12-24T10:13:06.210Z,13.70
2017-12-24T10:15:33.277Z,11.83
2017-12-24T10:17:59.593Z,11.90
2017-12-24T10:20:25.959Z,10.70
2017-12-24T10:22:52.266Z,11.07
2017-12-24T10:25:18.616Z,12.00
2017-12-24T10:27:44.965Z,11.60
2017-12-24T10:30:11.308Z,10.93
2017-12-24T10:32:37.650Z,10.57
2017-12-24T10:35:04.767Z,11.73
2017-12-24T10:37:31.101Z,10.70
2017-12-24T10:39:57.421Z,10.73
2017-12-24T10:42:24.519Z,11.03
2017-12-24T10:44:51.582Z,9.80
2017-12-24T10:47:17.921Z,12.67
2017-12-24T10:49:44.249Z,12.43
2017-12-24T10:52:10.592Z,10.97
2017-12-24T10:54:36.969Z,12.30
2017-12-24T10:57:03.627Z,13.63
2017-12-24T10:59:30.800Z,12.30
2017-12-24T11:01:57.104Z,13.07
2017-12-24T11:04:24.167Z,15.43
2017-12-24T11:06:51.206Z,13.60
2017-12-24T11:09:18.278Z,12.83
2017-12-24T11:11:44.620Z,12.20
2017-12-24T11:14:10.965Z,13.97
2017-12-24T11:16:37.314Z,13.70
2017-12-24T11:19:03.689Z,13.37
2017-12-24T11:21:30.049Z,14.63
2017-12-24T11:23:56.401Z,15.00
2017-12-24T11:26:22.757Z,13.60
2017-12-24T11:28:49.842Z,15.97
2017-12-24T11:31:16.163Z,15.90
2017-12-24T11:33:42.496Z,15.90
2017-12-24T11:36:08.825Z,16.60
2017-12-24T11:38:35.160Z,18.50
2017-12-24T11:41:01.483Z,21.93
2017-12-24T11:43:27.844Z,19.60
2017-12-24T11:45:54.169Z,16.93
2017-12-24T11:48:20.499Z,18.33
2017-12-24T11:50:47.138Z,19.53
2017-12-24T11:53:13.586Z,19.30
2017-12-24T11:55:40.669Z,18.90
2017-12-24T11:58:07.013Z,19.70
2017-12-24T12:00:34.159Z,25.00
2017-12-24T12:03:00.496Z,21.90
2017-12-24T12:05:26.836Z,26.37
2017-12-24T12:07:53.154Z,26.90
2017-12-24T12:10:20.216Z,27.80
2017-12-24T12:12:46.553Z,28.77
2017-12-24T12:15:12.884Z,27.90
2017-12-24T12:17:39.206Z,31.57
2017-12-24T12:20:05.544Z,34.73
2017-12-24T12:22:31.851Z,32.23
2017-12-24T12:24:58.203Z,31.33
2017-12-24T12:27:24.526Z,32.57
2017-12-24T12:29:50.856Z,33.70
2017-12-24T12:32:17.238Z,32.87
2017-12-24T12:34:43.590Z,31.50
2017-12-24T12:37:10.651Z,32.20
2017-12-24T12:39:37.720Z,29.37
2017-12-24T12:42:04.051Z,26.70
2017-12-24T12:44:30.367Z,29.50
2017-12-24T12:46:57.432Z,30.60
2017-12-24T12:49:24.078Z,29.10
2017-12-24T12:51:50.415Z,34.90
2017-12-24T12:54:16.719Z,34.93
2017-12-24T12:56:43.068Z,27.80
2017-12-24T12:59:09.397Z,26.83
2017-12-24T13:01:35.746Z,27.80
2017-12-24T13:04:02.229Z,29.70
2017-12-24T13:06:36.088Z,34.37
2017-12-24T13:09:02.426Z,31.73
2017-12-24T13:11:28.792Z,32.37
2017-12-24T13:13:55.852Z,40.90
2017-12-24T13:16:22.996Z,34.67
2017-12-24T13:18:49.348Z,35.17
2017-12-24T13:21:15.709Z,36.43
2017-12-24T13:23:42.069Z,33.47
2017-12-24T13:26:09.144Z,32.27
2017-12-24T13:28:35.477Z,30.43
2017-12-24T13:31:01.793Z,31.27
2017-12-24T13:33:28.873Z,35.00
2017-12-24T13:35:55.207Z,31.77
2017-12-24T13:38:21.543Z,32.03
2017-12-24T13:40:47.858Z,31.17
2017-12-24T13:43:14.246Z,23.93
2017-12-24T13:45:40.553Z,25.67
2017-12-24T13:48:06.906Z,23.40
2017-12-24T13:50:33.269Z,26.00
2017-12-24T13:52:59.595Z,28.43
2017-12-24T13:55:25.933Z,27.23
2017-12-24T13:57:52.385Z,28.63
2017-12-24T14:00:18.765Z,23.40
2017-12-24T14:02:45.881Z,26.17
2017-12-24T14:05:12.242Z,25.43
2017-12-24T14:07:38.597Z,24.10
2017-12-24T14:10:04.938Z,23.60
2017-12-24T14:12:31.271Z,24.33
2017-12-24T14:14:57.597Z,22.33
2017-12-24T14:17:23.918Z,23.37
2017-12-24T14:19:50.978Z,19.80
2017-12-24T14:22:17.296Z,23.50
2017-12-24T14:24:43.646Z,22.73
2017-12-24T14:27:09.971Z,22.60
2017-12-24T14:29:36.292Z,21.27
2017-12-24T14:32:02.609Z,20.50
2017-12-24T14:34:29.689Z,22.53
2017-12-24T14:36:56.024Z,22.13
2017-12-24T14:39:22.333Z,20.77
2017-12-24T14:41:48.669Z,20.10
2017-12-24T14:44:15.004Z,20.40
2017-12-24T14:46:41.344Z,21.60
2017-12-24T14:49:07.689Z,18.80
2017-12-24T14:51:34.003Z,18.60
2017-12-24T14:54:00.407Z,18.67
2017-12-24T14:56:27.444Z,16.80
2017-12-24T14:58:54.536Z,18.30
2017-12-24T15:01:20.893Z,23.70
2017-12-24T15:03:47.244Z,18.73
2017-12-24T15:06:13.574Z,17.27
2017-12-24T15:08:39.940Z,17.30
2017-12-24T15:11:06.290Z,17.07
2017-12-24T15:13:32.654Z,18.93
2017-12-24T15:15:58.995Z,18.47
2017-12-24T15:18:26.069Z,17.27
2017-12-24T15:20:52.471Z,18.63
2017-12-24T15:23:18.833Z,16.60
2017-12-24T15:25:45.176Z,20.23
2017-12-24T15:28:11.495Z,16.97
2017-12-24T15:30:37.820Z,18.43
2017-12-24T15:33:04.140Z,19.00
2017-12-24T15:35:30.487Z,18.47
2017-12-24T15:37:56.864Z,19.70
2017-12-24T15:40:23.234Z,17.23
2017-12-24T15:42:49.574Z,18.57
2017-12-24T15:45:15.954Z,18.87
2017-12-24T15:47:42.313Z,17.60
2017-12-24T15:50:09.393Z,19.63
2017-12-24T15:52:35.706Z,18.37
2017-12-24T15:55:02.769Z,20.07
2017-12-24T15:57:29.122Z,17.70
2017-12-24T15:59:55.441Z,18.33
2017-12-24T16:02:21.774Z,20.97
2017-12-24T16:04:48.110Z,20.57
2017-12-24T16:07:14.453Z,19.07
2017-12-24T16:09:40.806Z,18.73
2017-12-24T16:12:07.136Z,20.93
2017-12-24T16:14:33.471Z,22.13
2017-12-24T16:16:59.806Z,18.97
2017-12-24T16:19:26.873Z,20.13
2017-12-24T16:21:53.932Z,19.47
2017-12-24T16:24:20.289Z,18.67
2017-12-24T16:26:46.620Z,20.50
2017-12-24T16:29:12.932Z,16.70
2017-12-24T16:31:39.271Z,18.90
2017-12-24T16:34:05.630Z,20.00
2017-12-24T16:36:31.955Z,19.77
2017-12-24T16:38:58.272Z,19.03
2017-12-24T16:41:24.645Z,18.70
2017-12-24T16:43:51.721Z,18.57
2017-12-24T16:46:18.766Z,18.13
2017-12-24T16:48:45.098Z,21.43
2017-12-24T16:51:11.474Z,17.27
2017-12-24T16:53:37.848Z,18.37
2017-12-24T16:56:04.293Z,17.70
2017-12-24T16:58:30.684Z,17.57
2017-12-24T17:00:57.007Z,18.77
2017-12-24T17:03:23.353Z,19.40
2017-12-24T17:05:49.683Z,18.27
2017-12-24T17:08:16.018Z,19.50
2017-12-24T17:10:42.328Z,18.60
2017-12-24T17:13:08.659Z,17.37
2017-12-24T17:15:34.987Z,18.83
2017-12-24T17:18:02.110Z,19.20
2017-12-24T17:20:35.205Z,19.07
2017-12-24T17:23:01.532Z,18.07
2017-12-24T17:25:27.841Z,18.70
2017-12-24T17:27:54.172Z,18.97
2017-12-24T17:30:20.527Z,19.80
2017-12-24T17:32:46.847Z,18.50
2017-12-24T17:35:13.236Z,20.17
2017-12-24T17:37:39.648Z,18.67
2017-12-24T17:40:05.977Z,20.53
2017-12-24T17:42:32.334Z,20.07
2017-12-24T17:44:58.661Z,21.63
2017-12-24T17:47:24.984Z,18.20
2017-12-24T17:49:51.314Z,20.47
2017-12-24T17:52:17.626Z,21.87
2017-12-24T17:54:43.957Z,20.67
2017-12-24T17:57:10.270Z,19.43
2017-12-24T17:59:36.601Z,19.87
2017-12-24T18:02:02.940Z,21.83
2017-12-24T18:04:29.299Z,22.47
2017-12-24T18:06:56.367Z,20.77
2017-12-24T18:09:23.467Z,22.07
2017-12-24T18:11:50.580Z,21.17
2017-12-24T18:14:16.942Z,20.67
2017-12-24T18:16:43.246Z,19.67
2017-12-24T18:19:09.573Z,20.67
2017-12-24T18:21:35.892Z,21.40
2017-12-24T18:24:02.213Z,20.50
2017-12-24T18:26:28.530Z,21.40
2017-12-24T18:28:55.600Z,19.77
2017-12-24T18:31:21.907Z,21.27
2017-12-24T18:33:48.229Z,22.77
2017-12-24T18:36:15.292Z,21.57
2017-12-24T18:38:42.357Z,22.47
2017-12-24T18:41:08.688Z,20.97
2017-12-24T18:43:35.009Z,24.13
2017-12-24T18:46:01.347Z,20.63
2017-12-24T18:48:27.670Z,24.80
2017-12-24T18:50:53.988Z,25.50
2017-12-24T18:53:21.031Z,25.57
2017-12-24T18:55:47.355Z,26.40
2017-12-24T18:58:13.676Z,23.60
2017-12-24T19:00:40.017Z,25.60
2017-12-24T19:03:06.313Z,28.63
2017-12-24T19:05:32.687Z,28.53
2017-12-24T19:07:59.737Z,25.23
2017-12-24T19:10:26.076Z,25.80
2017-12-24T19:12:52.401Z,26.90
2017-12-24T19:15:19.492Z,25.23
2017-12-24T19:17:45.820Z,25.73
2017-12-24T19:20:12.152Z,25.40
2017-12-24T19:22:38.487Z,24.50
2017-12-24T19:25:04.778Z,23.60
2017-12-24T19:27:31.203Z,29.40
2017-12-24T19:29:57.582Z,25.40
2017-12-24T19:32:23.890Z,27.70
2017-12-24T19:34:50.214Z,26.93
2017-12-24T19:37:16.602Z,27.00
2017-12-24T19:39:42.970Z,27.50
2017-12-24T19:42:09.307Z,29.43
2017-12-24T19:44:35.645Z,27.50
2017-12-24T19:47:01.964Z,27.00
2017-12-24T19:49:28.300Z,29.23
2017-12-24T19:51:54.636Z,30.90
2017-12-24T19:54:20.956Z,29.67
2017-12-24T19:56:47.333Z,31.90
2017-12-24T19:59:13.705Z,26.83
2017-12-24T20:01:40.108Z,33.13
2017-12-24T20:04:07.242Z,32.37
2017-12-24T20:06:33.618Z,31.33
2017-12-24T20:09:00.006Z,30.80
2017-12-24T20:11:26.406Z,31.80
2017-12-24T20:13:52.740Z,36.43
2017-12-24T20:16:19.119Z,32.30
2017-12-24T20:18:45.481Z,33.70
2017-12-24T20:21:11.850Z,32.47
2017-12-24T20:23:38.212Z,30.20
2017-12-24T20:26:04.573Z,31.43
2017-12-24T20:28:30.954Z,31.13
2017-12-24T20:30:57.302Z,31.63
2017-12-24T20:33:23.699Z,34.40
2017-12-24T20:35:50.010Z,30.80
2017-12-24T20:38:16.374Z,33.90
2017-12-24T20:40:42.760Z,34.20
2017-12-24T20:43:09.120Z,35.73
2017-12-24T20:45:35.503Z,34.00
2017-12-24T20:48:01.963Z,33.07
2017-12-24T20:50:28.337Z,33.50
2017-12-24T20:52:54.696Z,33.10
2017-12-24T20:55:21.817Z,34.60
2017-12-24T20:57:48.170Z,35.80
2017-12-24T21:00:14.530Z,30.20
2017-12-24T21:02:40.906Z,31.60
2017-12-24T21:05:07.293Z,35.20
2017-12-24T21:07:33.633Z,33.23
2017-12-24T21:10:00.020Z,31.27
2017-12-24T21:12:26.377Z,37.30
2017-12-24T21:14:52.706Z,33.00
2017-12-24T21:17:19.070Z,33.13
2017-12-24T21:19:45.440Z,30.30
2017-12-24T21:22:11.807Z,30.13
2017-12-24T21:24:38.205Z,31.30
2017-12-24T21:27:04.580Z,30.50
2017-12-24T21:29:30.921Z,29.87
2017-12-24T21:31:57.298Z,29.13
2017-12-24T21:34:24.452Z,30.00
2017-12-24T21:36:51.561Z,29.10
2017-12-24T21:39:17.864Z,30.30
2017-12-24T21:41:44.244Z,27.43
2017-12-24T21:44:10.564Z,27.90
2017-12-24T21:46:36.890Z,28.67
2017-12-24T21:49:03.271Z,25.83
2017-12-24T21:51:29.610Z,28.77
2017-12-24T21:53:55.959Z,27.53
2017-12-24T21:56:22.342Z,25.90
2017-12-24T21:58:49.399Z,27.03
2017-12-24T22:01:15.772Z,26.33
2017-12-24T22:03:42.162Z,25.60
2017-12-24T22:06:08.528Z,26.70
2017-12-24T22:08:34.915Z,24.70
2017-12-24T22:11:01.275Z,25.07
2017-12-24T22:13:27.587Z,24.90
2017-12-24T22:15:54.664Z,24.13
2017-12-24T22:18:20.968Z,23.50
2017-12-24T22:20:48.061Z,24.40
2017-12-24T22:23:14.418Z,27.07
2017-12-24T22:25:40.743Z,24.63
2017-12-24T22:28:07.065Z,23.27
2017-12-24T22:30:33.427Z,23.90
2017-12-24T22:32:59.794Z,24.53
2017-12-24T22:35:26.172Z,23.83
2017-12-24T22:37:52.589Z,23.73
2017-12-24T22:40:18.947Z,23.30
2017-12-24T22:42:45.326Z,23.67
2017-12-24T22:45:11.767Z,23.60
2017-12-24T22:47:38.137Z,24.80
2017-12-24T22:50:04.523Z,23.27
2017-12-24T22:52:30.882Z,26.80
2017-12-24T22:54:57.257Z,24.63
2017-12-24T22:57:24.383Z,24.17
2017-12-24T22:59:50.723Z,25.17
2017-12-24T23:02:17.851Z,25.40
2017-12-24T23:04:44.239Z,26.57
2017-12-24T23:07:10.625Z,25.73
2017-12-24T23:09:37.009Z,26.97
2017-12-24T23:12:03.387Z,25.37
2017-12-24T23:14:29.732Z,27.90
2017-12-24T23:16:56.822Z,27.50
2017-12-24T23:19:23.234Z,30.00
2017-12-24T23:21:49.582Z,28.63
2017-12-24T23:24:15.917Z,29.97
2017-12-24T23:26:42.268Z,29.87
2017-12-24T23:29:08.649Z,30.27
2017-12-24T23:31:35.754Z,32.30
2017-12-24T23:34:02.097Z,31.03
2017-12-24T23:36:28.456Z,31.73
2017-12-24T23:38:54.814Z,33.27
2017-12-24T23:41:21.138Z,31.60
2017-12-24T23:43:47.489Z,31.47
2017-12-24T23:46:13.817Z,33.53
2017-12-24T23:48:40.169Z,33.10
2017-12-24T23:51:06.518Z,32.03
2017-12-24T23:53:40.547Z,31.17
2017-12-24T23:56:07.676Z,30.73
2017-12-24T23:58:34.046Z,32.70
